sensor_id;sensor_type;location;lat;lon;timestamp;P1;durP1;ratioP1;P2;durP2;ratioP2
5412;SDS011;2729;50.056;8.678;2022-09-30T00:00:27;3.53;;;3.03;;
5412;SDS011;2729;50.056;8.678;2022-09-30T00:02:53;5.60;;;3.37;;
5412;SDS011;2729;50.056;8.678;2022-09-30T00:05:19;3.63;;;3.10;;
5412;SDS011;2729;50.056;8.678;2022-09-30T00:07:45;3.67;;;3.37;;
5412;SDS011;2729;50.056;8.678;2022-09-30T00:10:11;3.50;;;3.20;;
5412;SDS011;2729;50.056;8.678;2022-09-30T00:12:38;4.83;;;3.57;;
5412;SDS011;2729;50.056;8.678;2022-09-30T00:15:04;5.33;;;3.47;;
5412;SDS011;2729;50.056;8.678;2022-09-30T00:17:30;3.23;;;2.67;;
5412;SDS011;2729;50.056;8.678;2022-09-30T00:19:56;5.63;;;3.53;;
5412;SDS011;2729;50.056;8.678;2022-09-30T00:22:22;11.20;;;3.70;;
5412;SDS011;2729;50.056;8.678;2022-09-30T00:24:48;6.33;;;3.73;;
5412;SDS011;2729;50.056;8.678;2022-09-30T00:27:15;5.70;;;3.20;;
5412;SDS011;2729;50.056;8.678;2022-09-30T00:29:43;4.20;;;3.70;;
5412;SDS011;2729;50.056;8.678;2022-09-30T00:32:09;10.60;;;4.10;;
5412;SDS011;2729;50.056;8.678;2022-09-30T00:34:35;3.40;;;3.20;;
5412;SDS011;2729;50.056;8.678;2022-09-30T00:37:01;8.00;;;3.50;;
5412;SDS011;2729;50.056;8.678;2022-09-30T00:39:28;3.50;;;3.17;;
5412;SDS011;2729;50.056;8.678;2022-09-30T00:41:56;3.17;;;2.93;;
5412;SDS011;2729;50.056;8.678;2022-09-30T00:52:42;4.87;;;3.33;;
5412;SDS011;2729;50.056;8.678;2022-09-30T00:55:15;4.70;;;4.00;;
5412;SDS011;2729;50.056;8.678;2022-09-30T00:57:47;6.20;;;3.57;;
5412;SDS011;2729;50.056;8.678;2022-09-30T01:00:13;4.00;;;3.60;;
5412;SDS011;2729;50.056;8.678;2022-09-30T01:02:39;3.67;;;3.37;;
5412;SDS011;2729;50.056;8.678;2022-09-30T01:05:05;6.83;;;4.07;;
5412;SDS011;2729;50.056;8.678;2022-09-30T01:07:34;6.73;;;4.20;;
5412;SDS011;2729;50.056;8.678;2022-09-30T01:10:01;6.70;;;4.37;;
5412;SDS011;2729;50.056;8.678;2022-09-30T01:12:27;10.77;;;3.00;;
5412;SDS011;2729;50.056;8.678;2022-09-30T01:14:54;8.20;;;3.50;;
5412;SDS011;2729;50.056;8.678;2022-09-30T01:17:30;5.83;;;4.03;;
5412;SDS011;2729;50.056;8.678;2022-09-30T01:23:20;6.07;;;4.33;;
5412;SDS011;2729;50.056;8.678;2022-09-30T01:32:23;3.97;;;3.10;;
5412;SDS011;2729;50.056;8.678;2022-09-30T01:37:57;6.90;;;4.00;;
5412;SDS011;2729;50.056;8.678;2022-09-30T01:43:21;4.97;;;3.37;;
5412;SDS011;2729;50.056;8.678;2022-09-30T01:45:57;3.93;;;3.67;;
5412;SDS011;2729;50.056;8.678;2022-09-30T01:57:16;4.67;;;3.93;;
5412;SDS011;2729;50.056;8.678;2022-09-30T01:59:50;4.70;;;3.47;;
5412;SDS011;2729;50.056;8.678;2022-09-30T02:02:28;7.80;;;3.87;;
5412;SDS011;2729;50.056;8.678;2022-09-30T02:04:57;3.70;;;3.30;;
5412;SDS011;2729;50.056;8.678;2022-09-30T02:07:32;6.53;;;4.17;;
5412;SDS011;2729;50.056;8.678;2022-09-30T02:10:08;4.20;;;3.80;;
5412;SDS011;2729;50.056;8.678;2022-09-30T02:12:41;4.80;;;3.80;;
5412;SDS011;2729;50.056;8.678;2022-09-30T02:15:14;5.43;;;3.93;;
5412;SDS011;2729;50.056;8.678;2022-09-30T02:17:59;5.60;;;3.83;;
5412;SDS011;2729;50.056;8.678;2022-09-30T02:20:30;4.23;;;3.50;;
5412;SDS011;2729;50.056;8.678;2022-09-30T02:23:21;4.93;;;3.70;;
5412;SDS011;2729;50.056;8.678;2022-09-30T02:26:02;7.13;;;3.60;;
5412;SDS011;2729;50.056;8.678;2022-09-30T02:28:34;3.50;;;3.17;;
5412;SDS011;2729;50.056;8.678;2022-09-30T02:31:04;5.67;;;3.67;;
5412;SDS011;2729;50.056;8.678;2022-09-30T02:33:38;8.77;;;4.10;;
5412;SDS011;2729;50.056;8.678;2022-09-30T02:36:19;4.33;;;3.97;;
5412;SDS011;2729;50.056;8.678;2022-09-30T02:38:58;4.90;;;4.00;;
5412;SDS011;2729;50.056;8.678;2022-09-30T02:41:27;5.07;;;3.70;;
5412;SDS011;2729;50.056;8.678;2022-09-30T02:43:57;5.20;;;3.67;;
5412;SDS011;2729;50.056;8.678;2022-09-30T02:46:38;7.60;;;4.43;;
5412;SDS011;2729;50.056;8.678;2022-09-30T02:49:30;4.63;;;4.23;;
5412;SDS011;2729;50.056;8.678;2022-09-30T02:52:12;5.63;;;3.67;;
5412;SDS011;2729;50.056;8.678;2022-09-30T02:54:46;4.40;;;3.67;;
5412;SDS011;2729;50.056;8.678;2022-09-30T03:00:30;4.30;;;3.80;;
5412;SDS011;2729;50.056;8.678;2022-09-30T03:03:02;5.73;;;3.83;;
5412;SDS011;2729;50.056;8.678;2022-09-30T03:05:33;3.60;;;3.30;;
5412;SDS011;2729;50.056;8.678;2022-09-30T03:07:59;4.67;;;3.73;;
5412;SDS011;2729;50.056;8.678;2022-09-30T03:10:26;6.70;;;3.90;;
5412;SDS011;2729;50.056;8.678;2022-09-30T03:16:30;4.63;;;4.17;;
5412;SDS011;2729;50.056;8.678;2022-09-30T03:19:15;11.13;;;3.70;;
5412;SDS011;2729;50.056;8.678;2022-09-30T03:27:53;9.00;;;3.77;;
5412;SDS011;2729;50.056;8.678;2022-09-30T03:30:40;5.63;;;4.33;;
5412;SDS011;2729;50.056;8.678;2022-09-30T03:38:50;13.50;;;4.17;;
5412;SDS011;2729;50.056;8.678;2022-09-30T03:41:24;5.80;;;4.03;;
5412;SDS011;2729;50.056;8.678;2022-09-30T03:48:54;6.80;;;4.10;;
5412;SDS011;2729;50.056;8.678;2022-09-30T03:51:23;6.40;;;4.00;;
5412;SDS011;2729;50.056;8.678;2022-09-30T03:53:50;4.40;;;3.97;;
5412;SDS011;2729;50.056;8.678;2022-09-30T03:56:25;4.50;;;4.10;;
5412;SDS011;2729;50.056;8.678;2022-09-30T03:58:52;7.20;;;4.70;;
5412;SDS011;2729;50.056;8.678;2022-09-30T04:01:19;7.33;;;4.17;;
5412;SDS011;2729;50.056;8.678;2022-09-30T04:03:49;32.67;;;4.60;;
5412;SDS011;2729;50.056;8.678;2022-09-30T04:06:22;4.43;;;3.80;;
5412;SDS011;2729;50.056;8.678;2022-09-30T04:08:50;4.30;;;3.50;;
5412;SDS011;2729;50.056;8.678;2022-09-30T04:11:18;4.87;;;3.87;;
5412;SDS011;2729;50.056;8.678;2022-09-30T04:13:44;7.80;;;3.77;;
5412;SDS011;2729;50.056;8.678;2022-09-30T04:16:10;4.03;;;3.70;;
5412;SDS011;2729;50.056;8.678;2022-09-30T04:18:36;7.07;;;3.93;;
5412;SDS011;2729;50.056;8.678;2022-09-30T04:21:07;4.10;;;3.70;;
5412;SDS011;2729;50.056;8.678;2022-09-30T04:23:37;5.10;;;4.00;;
5412;SDS011;2729;50.056;8.678;2022-09-30T04:26:05;4.30;;;3.20;;
5412;SDS011;2729;50.056;8.678;2022-09-30T04:28:32;4.47;;;4.07;;
5412;SDS011;2729;50.056;8.678;2022-09-30T04:30:59;6.10;;;3.80;;
5412;SDS011;2729;50.056;8.678;2022-09-30T04:33:26;5.67;;;4.10;;
5412;SDS011;2729;50.056;8.678;2022-09-30T04:35:53;5.20;;;3.60;;
5412;SDS011;2729;50.056;8.678;2022-09-30T04:38:20;3.17;;;2.87;;
5412;SDS011;2729;50.056;8.678;2022-09-30T04:40:46;4.30;;;3.00;;
5412;SDS011;2729;50.056;8.678;2022-09-30T04:43:14;7.70;;;3.87;;
5412;SDS011;2729;50.056;8.678;2022-09-30T04:45:43;4.17;;;3.37;;
5412;SDS011;2729;50.056;8.678;2022-09-30T04:48:10;7.40;;;3.87;;
5412;SDS011;2729;50.056;8.678;2022-09-30T04:50:37;5.10;;;3.87;;
5412;SDS011;2729;50.056;8.678;2022-09-30T04:53:04;6.93;;;4.37;;
5412;SDS011;2729;50.056;8.678;2022-09-30T04:55:30;3.73;;;3.43;;
5412;SDS011;2729;50.056;8.678;2022-09-30T04:57:56;12.40;;;3.40;;
5412;SDS011;2729;50.056;8.678;2022-09-30T05:00:22;6.47;;;2.83;;
5412;SDS011;2729;50.056;8.678;2022-09-30T05:02:49;4.20;;;3.37;;
5412;SDS011;2729;50.056;8.678;2022-09-30T05:05:16;14.03;;;3.83;;
5412;SDS011;2729;50.056;8.678;2022-09-30T05:07:42;3.73;;;3.40;;
5412;SDS011;2729;50.056;8.678;2022-09-30T05:10:09;4.13;;;3.50;;
5412;SDS011;2729;50.056;8.678;2022-09-30T05:12:39;4.97;;;3.63;;
5412;SDS011;2729;50.056;8.678;2022-09-30T05:15:08;5.20;;;3.30;;
5412;SDS011;2729;50.056;8.678;2022-09-30T05:17:34;4.67;;;3.43;;
5412;SDS011;2729;50.056;8.678;2022-09-30T05:20:00;4.20;;;3.60;;
5412;SDS011;2729;50.056;8.678;2022-09-30T05:22:27;3.00;;;2.80;;
5412;SDS011;2729;50.056;8.678;2022-09-30T05:24:53;11.13;;;3.40;;
5412;SDS011;2729;50.056;8.678;2022-09-30T05:27:21;11.73;;;3.90;;
5412;SDS011;2729;50.056;8.678;2022-09-30T05:29:48;4.70;;;3.30;;
5412;SDS011;2729;50.056;8.678;2022-09-30T05:32:14;5.13;;;3.50;;
5412;SDS011;2729;50.056;8.678;2022-09-30T05:34:40;4.00;;;3.70;;
5412;SDS011;2729;50.056;8.678;2022-09-30T05:37:06;5.03;;;3.30;;
5412;SDS011;2729;50.056;8.678;2022-09-30T05:39:34;5.80;;;3.30;;
5412;SDS011;2729;50.056;8.678;2022-09-30T05:42:00;5.80;;;3.80;;
5412;SDS011;2729;50.056;8.678;2022-09-30T05:44:26;5.30;;;3.77;;
5412;SDS011;2729;50.056;8.678;2022-09-30T05:46:52;7.40;;;3.30;;
5412;SDS011;2729;50.056;8.678;2022-09-30T05:49:18;4.83;;;4.10;;
5412;SDS011;2729;50.056;8.678;2022-09-30T05:51:44;3.50;;;3.20;;
5412;SDS011;2729;50.056;8.678;2022-09-30T05:54:10;4.60;;;3.90;;
5412;SDS011;2729;50.056;8.678;2022-09-30T05:56:36;4.90;;;3.43;;
5412;SDS011;2729;50.056;8.678;2022-09-30T05:59:05;10.33;;;4.27;;
5412;SDS011;2729;50.056;8.678;2022-09-30T06:01:32;4.90;;;3.27;;
5412;SDS011;2729;50.056;8.678;2022-09-30T06:03:58;5.47;;;4.07;;
5412;SDS011;2729;50.056;8.678;2022-09-30T06:06:25;8.87;;;4.00;;
5412;SDS011;2729;50.056;8.678;2022-09-30T06:08:54;7.63;;;3.83;;
5412;SDS011;2729;50.056;8.678;2022-09-30T06:11:20;5.47;;;3.43;;
5412;SDS011;2729;50.056;8.678;2022-09-30T06:13:49;3.17;;;2.97;;
5412;SDS011;2729;50.056;8.678;2022-09-30T06:16:17;3.07;;;2.87;;
5412;SDS011;2729;50.056;8.678;2022-09-30T06:18:43;4.03;;;3.30;;
5412;SDS011;2729;50.056;8.678;2022-09-30T06:21:11;5.13;;;3.33;;
5412;SDS011;2729;50.056;8.678;2022-09-30T06:23:39;5.97;;;3.80;;
5412;SDS011;2729;50.056;8.678;2022-09-30T06:26:05;5.33;;;3.47;;
5412;SDS011;2729;50.056;8.678;2022-09-30T06:28:33;5.37;;;3.27;;
5412;SDS011;2729;50.056;8.678;2022-09-30T06:31:03;3.50;;;3.20;;
5412;SDS011;2729;50.056;8.678;2022-09-30T06:33:30;3.60;;;3.13;;
5412;SDS011;2729;50.056;8.678;2022-09-30T06:35:56;12.50;;;4.10;;
5412;SDS011;2729;50.056;8.678;2022-09-30T06:38:23;4.40;;;3.43;;
5412;SDS011;2729;50.056;8.678;2022-09-30T06:40:49;4.97;;;3.43;;
5412;SDS011;2729;50.056;8.678;2022-09-30T06:43:15;7.53;;;4.00;;
5412;SDS011;2729;50.056;8.678;2022-09-30T06:45:46;4.73;;;4.13;;
5412;SDS011;2729;50.056;8.678;2022-09-30T06:48:13;4.33;;;3.37;;
5412;SDS011;2729;50.056;8.678;2022-09-30T06:50:41;7.73;;;3.80;;
5412;SDS011;2729;50.056;8.678;2022-09-30T06:53:07;5.60;;;4.13;;
5412;SDS011;2729;50.056;8.678;2022-09-30T06:55:36;11.80;;;5.07;;
5412;SDS011;2729;50.056;8.678;2022-09-30T06:58:08;5.90;;;4.63;;
5412;SDS011;2729;50.056;8.678;2022-09-30T07:00:38;8.03;;;4.70;;
5412;SDS011;2729;50.056;8.678;2022-09-30T07:03:04;5.80;;;4.50;;
5412;SDS011;2729;50.056;8.678;2022-09-30T07:05:35;9.80;;;4.40;;
5412;SDS011;2729;50.056;8.678;2022-09-30T07:08:01;5.37;;;4.40;;
5412;SDS011;2729;50.056;8.678;2022-09-30T07:10:27;5.27;;;4.77;;
5412;SDS011;2729;50.056;8.678;2022-09-30T07:12:53;5.13;;;4.63;;
5412;SDS011;2729;50.056;8.678;2022-09-30T07:15:19;5.50;;;4.83;;
5412;SDS011;2729;50.056;8.678;2022-09-30T07:17:51;7.13;;;5.07;;
5412;SDS011;2729;50.056;8.678;2022-09-30T07:20:17;6.07;;;4.53;;
5412;SDS011;2729;50.056;8.678;2022-09-30T07:22:44;5.90;;;5.17;;
5412;SDS011;2729;50.056;8.678;2022-09-30T07:25:10;8.07;;;5.03;;
5412;SDS011;2729;50.056;8.678;2022-09-30T07:27:36;9.97;;;5.00;;
5412;SDS011;2729;50.056;8.678;2022-09-30T07:30:02;5.10;;;4.60;;
5412;SDS011;2729;50.056;8.678;2022-09-30T07:32:30;7.07;;;5.10;;
5412;SDS011;2729;50.056;8.678;2022-09-30T07:34:56;6.63;;;4.23;;
5412;SDS011;2729;50.056;8.678;2022-09-30T07:37:22;7.50;;;5.33;;
5412;SDS011;2729;50.056;8.678;2022-09-30T07:39:50;9.00;;;5.23;;
5412;SDS011;2729;50.056;8.678;2022-09-30T07:42:17;5.80;;;4.40;;
5412;SDS011;2729;50.056;8.678;2022-09-30T07:44:47;5.90;;;4.30;;
5412;SDS011;2729;50.056;8.678;2022-09-30T07:47:16;5.10;;;4.50;;
5412;SDS011;2729;50.056;8.678;2022-09-30T07:49:43;5.60;;;4.50;;
5412;SDS011;2729;50.056;8.678;2022-09-30T07:52:10;5.37;;;4.27;;
5412;SDS011;2729;50.056;8.678;2022-09-30T07:54:37;6.97;;;4.67;;
5412;SDS011;2729;50.056;8.678;2022-09-30T07:57:04;5.70;;;4.60;;
5412;SDS011;2729;50.056;8.678;2022-09-30T07:59:31;5.43;;;4.30;;
5412;SDS011;2729;50.056;8.678;2022-09-30T08:02:00;5.30;;;4.80;;
5412;SDS011;2729;50.056;8.678;2022-09-30T08:04:26;6.23;;;4.70;;
5412;SDS011;2729;50.056;8.678;2022-09-30T08:06:54;5.37;;;4.30;;
5412;SDS011;2729;50.056;8.678;2022-09-30T08:09:22;6.90;;;4.43;;
5412;SDS011;2729;50.056;8.678;2022-09-30T08:11:50;4.20;;;3.80;;
5412;SDS011;2729;50.056;8.678;2022-09-30T08:14:17;9.13;;;4.07;;
5412;SDS011;2729;50.056;8.678;2022-09-30T08:16:45;3.90;;;3.50;;
5412;SDS011;2729;50.056;8.678;2022-09-30T08:19:12;5.93;;;3.63;;
5412;SDS011;2729;50.056;8.678;2022-09-30T08:21:41;10.03;;;4.60;;
5412;SDS011;2729;50.056;8.678;2022-09-30T08:24:08;5.00;;;4.10;;
5412;SDS011;2729;50.056;8.678;2022-09-30T08:26:34;5.50;;;4.13;;
5412;SDS011;2729;50.056;8.678;2022-09-30T08:29:00;9.33;;;4.30;;
5412;SDS011;2729;50.056;8.678;2022-09-30T08:31:26;4.40;;;3.87;;
5412;SDS011;2729;50.056;8.678;2022-09-30T08:33:52;14.53;;;4.30;;
5412;SDS011;2729;50.056;8.678;2022-09-30T08:36:22;4.87;;;3.97;;
5412;SDS011;2729;50.056;8.678;2022-09-30T08:38:49;5.00;;;3.90;;
5412;SDS011;2729;50.056;8.678;2022-09-30T08:52:51;4.10;;;3.70;;
5412;SDS011;2729;50.056;8.678;2022-09-30T08:55:23;3.90;;;3.60;;
5412;SDS011;2729;50.056;8.678;2022-09-30T08:57:51;7.03;;;4.50;;
5412;SDS011;2729;50.056;8.678;2022-09-30T09:00:19;4.17;;;3.53;;
5412;SDS011;2729;50.056;8.678;2022-09-30T09:02:51;6.60;;;4.20;;
5412;SDS011;2729;50.056;8.678;2022-09-30T09:11:11;3.97;;;3.57;;
5412;SDS011;2729;50.056;8.678;2022-09-30T09:14:01;4.60;;;3.80;;
5412;SDS011;2729;50.056;8.678;2022-09-30T09:16:45;4.53;;;4.10;;
5412;SDS011;2729;50.056;8.678;2022-09-30T09:19:28;3.67;;;3.33;;
5412;SDS011;2729;50.056;8.678;2022-09-30T09:22:06;7.13;;;3.40;;
5412;SDS011;2729;50.056;8.678;2022-09-30T09:24:36;3.93;;;3.47;;
5412;SDS011;2729;50.056;8.678;2022-09-30T09:32:41;6.23;;;3.63;;
5412;SDS011;2729;50.056;8.678;2022-09-30T09:35:16;5.40;;;3.50;;
5412;SDS011;2729;50.056;8.678;2022-09-30T09:51:39;3.83;;;3.33;;
5412;SDS011;2729;50.056;8.678;2022-09-30T09:54:11;4.00;;;3.10;;
5412;SDS011;2729;50.056;8.678;2022-09-30T09:56:39;5.47;;;3.33;;
5412;SDS011;2729;50.056;8.678;2022-09-30T09:59:15;6.43;;;3.47;;
5412;SDS011;2729;50.056;8.678;2022-09-30T10:04:14;3.17;;;2.97;;
5412;SDS011;2729;50.056;8.678;2022-09-30T10:06:58;4.03;;;2.67;;
5412;SDS011;2729;50.056;8.678;2022-09-30T10:09:36;10.33;;;3.17;;
5412;SDS011;2729;50.056;8.678;2022-09-30T10:16:58;3.73;;;3.00;;
5412;SDS011;2729;50.056;8.678;2022-09-30T10:19:26;2.93;;;2.30;;
5412;SDS011;2729;50.056;8.678;2022-09-30T10:22:16;2.67;;;2.57;;
5412;SDS011;2729;50.056;8.678;2022-09-30T10:24:43;2.73;;;2.53;;
5412;SDS011;2729;50.056;8.678;2022-09-30T10:27:25;3.93;;;3.27;;
5412;SDS011;2729;50.056;8.678;2022-09-30T10:29:53;3.13;;;2.90;;
5412;SDS011;2729;50.056;8.678;2022-09-30T10:32:19;4.40;;;2.70;;
5412;SDS011;2729;50.056;8.678;2022-09-30T10:34:45;3.63;;;2.63;;
5412;SDS011;2729;50.056;8.678;2022-09-30T10:37:22;8.67;;;2.63;;
5412;SDS011;2729;50.056;8.678;2022-09-30T10:39:51;9.00;;;3.07;;
5412;SDS011;2729;50.056;8.678;2022-09-30T10:42:24;3.20;;;2.90;;
5412;SDS011;2729;50.056;8.678;2022-09-30T10:44:56;2.60;;;2.40;;
5412;SDS011;2729;50.056;8.678;2022-09-30T10:47:26;2.37;;;2.27;;
5412;SDS011;2729;50.056;8.678;2022-09-30T10:49:59;4.03;;;2.37;;
5412;SDS011;2729;50.056;8.678;2022-09-30T10:52:30;2.60;;;2.40;;
5412;SDS011;2729;50.056;8.678;2022-09-30T10:55:00;3.00;;;2.10;;
5412;SDS011;2729;50.056;8.678;2022-09-30T10:57:50;3.53;;;2.43;;
5412;SDS011;2729;50.056;8.678;2022-09-30T11:00:19;2.97;;;2.40;;
5412;SDS011;2729;50.056;8.678;2022-09-30T11:02:51;2.80;;;1.90;;
5412;SDS011;2729;50.056;8.678;2022-09-30T11:05:38;2.23;;;2.00;;
5412;SDS011;2729;50.056;8.678;2022-09-30T11:08:28;4.83;;;2.27;;
5412;SDS011;2729;50.056;8.678;2022-09-30T11:11:10;2.97;;;1.67;;
5412;SDS011;2729;50.056;8.678;2022-09-30T11:16:15;2.07;;;1.87;;
5412;SDS011;2729;50.056;8.678;2022-09-30T11:21:59;2.63;;;1.57;;
5412;SDS011;2729;50.056;8.678;2022-09-30T11:24:43;1.73;;;1.63;;
5412;SDS011;2729;50.056;8.678;2022-09-30T11:27:19;2.53;;;1.90;;
5412;SDS011;2729;50.056;8.678;2022-09-30T11:38:54;2.43;;;1.43;;
5412;SDS011;2729;50.056;8.678;2022-09-30T11:47:15;1.70;;;1.60;;
5412;SDS011;2729;50.056;8.678;2022-09-30T11:55:28;4.30;;;1.90;;
5412;SDS011;2729;50.056;8.678;2022-09-30T11:58:03;2.90;;;2.00;;
5412;SDS011;2729;50.056;8.678;2022-09-30T12:00:32;4.17;;;1.63;;
5412;SDS011;2729;50.056;8.678;2022-09-30T12:03:09;1.77;;;1.67;;
5412;SDS011;2729;50.056;8.678;2022-09-30T12:05:40;2.00;;;1.40;;
5412;SDS011;2729;50.056;8.678;2022-09-30T12:08:17;1.60;;;1.50;;
5412;SDS011;2729;50.056;8.678;2022-09-30T12:10:57;2.50;;;1.47;;
5412;SDS011;2729;50.056;8.678;2022-09-30T12:13:38;7.83;;;1.87;;
5412;SDS011;2729;50.056;8.678;2022-09-30T12:16:15;1.70;;;1.60;;
5412;SDS011;2729;50.056;8.678;2022-09-30T12:18:46;2.97;;;1.60;;
5412;SDS011;2729;50.056;8.678;2022-09-30T12:21:38;1.70;;;1.60;;
5412;SDS011;2729;50.056;8.678;2022-09-30T12:24:12;1.70;;;1.60;;
5412;SDS011;2729;50.056;8.678;2022-09-30T12:26:45;3.07;;;1.50;;
5412;SDS011;2729;50.056;8.678;2022-09-30T12:34:59;1.40;;;1.30;;
5412;SDS011;2729;50.056;8.678;2022-09-30T12:40:30;1.37;;;1.37;;
5412;SDS011;2729;50.056;8.678;2022-09-30T12:43:28;1.60;;;1.40;;
5412;SDS011;2729;50.056;8.678;2022-09-30T12:48:37;1.33;;;1.23;;
5412;SDS011;2729;50.056;8.678;2022-09-30T12:51:08;4.33;;;1.40;;
5412;SDS011;2729;50.056;8.678;2022-09-30T12:53:47;1.57;;;1.47;;
5412;SDS011;2729;50.056;8.678;2022-09-30T12:56:17;5.77;;;1.60;;
5412;SDS011;2729;50.056;8.678;2022-09-30T12:58:44;3.23;;;1.57;;
5412;SDS011;2729;50.056;8.678;2022-09-30T13:01:21;1.30;;;1.20;;
5412;SDS011;2729;50.056;8.678;2022-09-30T13:03:51;1.70;;;1.37;;
5412;SDS011;2729;50.056;8.678;2022-09-30T13:06:27;3.00;;;1.13;;
5412;SDS011;2729;50.056;8.678;2022-09-30T13:11:45;1.10;;;0.90;;
5412;SDS011;2729;50.056;8.678;2022-09-30T13:14:22;1.77;;;1.13;;
5412;SDS011;2729;50.056;8.678;2022-09-30T13:16:58;27.07;;;1.60;;
5412;SDS011;2729;50.056;8.678;2022-09-30T13:27:41;1.50;;;1.40;;
5412;SDS011;2729;50.056;8.678;2022-09-30T13:32:39;1.70;;;1.60;;
5412;SDS011;2729;50.056;8.678;2022-09-30T13:41:00;1.40;;;1.30;;
5412;SDS011;2729;50.056;8.678;2022-09-30T13:43:39;1.20;;;1.20;;
5412;SDS011;2729;50.056;8.678;2022-09-30T13:46:21;1.00;;;1.00;;
5412;SDS011;2729;50.056;8.678;2022-09-30T13:51:50;0.90;;;0.90;;
5412;SDS011;2729;50.056;8.678;2022-09-30T13:54:24;2.30;;;1.90;;
5412;SDS011;2729;50.056;8.678;2022-09-30T13:56:56;1.10;;;1.10;;
5412;SDS011;2729;50.056;8.678;2022-09-30T13:59:29;1.53;;;1.43;;
5412;SDS011;2729;50.056;8.678;2022-09-30T14:10:38;1.50;;;1.40;;
5412;SDS011;2729;50.056;8.678;2022-09-30T14:19:02;1.50;;;1.40;;
5412;SDS011;2729;50.056;8.678;2022-09-30T14:21:50;1.37;;;1.27;;
5412;SDS011;2729;50.056;8.678;2022-09-30T14:24:23;1.63;;;1.53;;
5412;SDS011;2729;50.056;8.678;2022-09-30T14:26:55;1.97;;;1.50;;
5412;SDS011;2729;50.056;8.678;2022-09-30T14:32:09;4.37;;;1.57;;
5412;SDS011;2729;50.056;8.678;2022-09-30T14:34:36;4.50;;;1.50;;
5412;SDS011;2729;50.056;8.678;2022-09-30T14:37:03;1.63;;;1.53;;
5412;SDS011;2729;50.056;8.678;2022-09-30T14:39:29;1.30;;;1.20;;
5412;SDS011;2729;50.056;8.678;2022-09-30T14:42:00;5.00;;;1.83;;
5412;SDS011;2729;50.056;8.678;2022-09-30T14:44:30;1.60;;;1.50;;
5412;SDS011;2729;50.056;8.678;2022-09-30T14:47:00;2.83;;;1.40;;
5412;SDS011;2729;50.056;8.678;2022-09-30T14:49:30;1.70;;;1.57;;
5412;SDS011;2729;50.056;8.678;2022-09-30T14:51:59;1.60;;;1.50;;
5412;SDS011;2729;50.056;8.678;2022-09-30T14:54:27;1.47;;;1.37;;
5412;SDS011;2729;50.056;8.678;2022-09-30T14:57:00;1.50;;;1.40;;
5412;SDS011;2729;50.056;8.678;2022-09-30T15:02:00;1.57;;;1.30;;
5412;SDS011;2729;50.056;8.678;2022-09-30T15:04:29;2.73;;;1.50;;
5412;SDS011;2729;50.056;8.678;2022-09-30T15:06:58;1.33;;;1.33;;
5412;SDS011;2729;50.056;8.678;2022-09-30T15:09:33;1.20;;;1.20;;
5412;SDS011;2729;50.056;8.678;2022-09-30T15:12:05;3.00;;;1.67;;
5412;SDS011;2729;50.056;8.678;2022-09-30T15:14:52;1.87;;;1.10;;
5412;SDS011;2729;50.056;8.678;2022-09-30T15:17:20;3.73;;;1.60;;
5412;SDS011;2729;50.056;8.678;2022-09-30T15:20:25;1.60;;;1.20;;
5412;SDS011;2729;50.056;8.678;2022-09-30T15:22:53;1.50;;;1.40;;
5412;SDS011;2729;50.056;8.678;2022-09-30T15:25:22;1.50;;;1.50;;
5412;SDS011;2729;50.056;8.678;2022-09-30T15:27:48;1.63;;;1.33;;
5412;SDS011;2729;50.056;8.678;2022-09-30T15:32:41;1.80;;;1.27;;
5412;SDS011;2729;50.056;8.678;2022-09-30T15:35:16;1.43;;;1.33;;
5412;SDS011;2729;50.056;8.678;2022-09-30T15:37:46;2.30;;;1.60;;
5412;SDS011;2729;50.056;8.678;2022-09-30T15:40:17;1.10;;;1.10;;
5412;SDS011;2729;50.056;8.678;2022-09-30T15:43:05;1.27;;;1.17;;
5412;SDS011;2729;50.056;8.678;2022-09-30T15:45:36;2.83;;;1.43;;
5412;SDS011;2729;50.056;8.678;2022-09-30T15:50:45;4.53;;;3.47;;
5412;SDS011;2729;50.056;8.678;2022-09-30T15:53:23;1.77;;;1.67;;
5412;SDS011;2729;50.056;8.678;2022-09-30T15:56:34;1.30;;;1.20;;
5412;SDS011;2729;50.056;8.678;2022-09-30T15:58:52;1.37;;;1.27;;
5412;SDS011;2729;50.056;8.678;2022-09-30T16:01:36;4.30;;;1.27;;
5412;SDS011;2729;50.056;8.678;2022-09-30T16:09:07;1.47;;;1.30;;
5412;SDS011;2729;50.056;8.678;2022-09-30T16:11:42;1.80;;;1.27;;
5412;SDS011;2729;50.056;8.678;2022-09-30T16:14:22;1.43;;;1.43;;
5412;SDS011;2729;50.056;8.678;2022-09-30T16:16:52;1.37;;;1.33;;
5412;SDS011;2729;50.056;8.678;2022-09-30T16:19:21;8.33;;;1.60;;
5412;SDS011;2729;50.056;8.678;2022-09-30T16:21:49;2.17;;;1.97;;
5412;SDS011;2729;50.056;8.678;2022-09-30T16:26:48;1.30;;;1.30;;
5412;SDS011;2729;50.056;8.678;2022-09-30T16:29:21;1.47;;;1.37;;
5412;SDS011;2729;50.056;8.678;2022-09-30T16:31:48;1.90;;;1.60;;
5412;SDS011;2729;50.056;8.678;2022-09-30T16:34:26;1.50;;;1.30;;
5412;SDS011;2729;50.056;8.678;2022-09-30T16:37:02;3.27;;;1.60;;
5412;SDS011;2729;50.056;8.678;2022-09-30T16:39:35;4.73;;;1.70;;
5412;SDS011;2729;50.056;8.678;2022-09-30T16:42:01;3.27;;;1.20;;
5412;SDS011;2729;50.056;8.678;2022-09-30T16:44:29;2.80;;;1.50;;
5412;SDS011;2729;50.056;8.678;2022-09-30T16:47:00;3.53;;;3.20;;
5412;SDS011;2729;50.056;8.678;2022-09-30T16:49:26;3.80;;;1.53;;
5412;SDS011;2729;50.056;8.678;2022-09-30T16:51:52;1.40;;;1.30;;
5412;SDS011;2729;50.056;8.678;2022-09-30T16:54:18;1.80;;;1.70;;
5412;SDS011;2729;50.056;8.678;2022-09-30T16:56:44;1.20;;;1.10;;
5412;SDS011;2729;50.056;8.678;2022-09-30T16:59:14;2.80;;;1.30;;
5412;SDS011;2729;50.056;8.678;2022-09-30T17:01:41;1.37;;;1.37;;
5412;SDS011;2729;50.056;8.678;2022-09-30T17:04:08;1.53;;;1.47;;
5412;SDS011;2729;50.056;8.678;2022-09-30T17:06:35;2.77;;;1.57;;
5412;SDS011;2729;50.056;8.678;2022-09-30T17:09:02;1.80;;;1.60;;
5412;SDS011;2729;50.056;8.678;2022-09-30T17:11:30;3.13;;;1.50;;
5412;SDS011;2729;50.056;8.678;2022-09-30T17:14:00;3.37;;;1.63;;
5412;SDS011;2729;50.056;8.678;2022-09-30T17:16:28;4.40;;;1.57;;
5412;SDS011;2729;50.056;8.678;2022-09-30T17:18:54;1.60;;;1.50;;
5412;SDS011;2729;50.056;8.678;2022-09-30T17:21:20;3.23;;;1.70;;
5412;SDS011;2729;50.056;8.678;2022-09-30T17:23:48;5.50;;;1.43;;
5412;SDS011;2729;50.056;8.678;2022-09-30T17:26:15;4.20;;;1.70;;
5412;SDS011;2729;50.056;8.678;2022-09-30T17:28:41;1.87;;;1.77;;
5412;SDS011;2729;50.056;8.678;2022-09-30T17:31:07;1.70;;;1.60;;
5412;SDS011;2729;50.056;8.678;2022-09-30T17:33:35;4.43;;;1.43;;
5412;SDS011;2729;50.056;8.678;2022-09-30T17:36:08;5.60;;;1.87;;
5412;SDS011;2729;50.056;8.678;2022-09-30T17:38:36;3.63;;;1.70;;
5412;SDS011;2729;50.056;8.678;2022-09-30T17:41:03;3.40;;;1.80;;
5412;SDS011;2729;50.056;8.678;2022-09-30T17:43:48;1.50;;;1.50;;
5412;SDS011;2729;50.056;8.678;2022-09-30T17:46:14;4.13;;;1.73;;
5412;SDS011;2729;50.056;8.678;2022-09-30T17:48:43;2.00;;;1.90;;
5412;SDS011;2729;50.056;8.678;2022-09-30T17:51:11;4.63;;;1.50;;
5412;SDS011;2729;50.056;8.678;2022-09-30T17:53:38;1.87;;;1.77;;
5412;SDS011;2729;50.056;8.678;2022-09-30T17:56:05;1.87;;;1.77;;
5412;SDS011;2729;50.056;8.678;2022-09-30T17:58:37;3.23;;;2.50;;
5412;SDS011;2729;50.056;8.678;2022-09-30T18:01:10;6.33;;;2.20;;
5412;SDS011;2729;50.056;8.678;2022-09-30T18:03:36;2.60;;;2.40;;
5412;SDS011;2729;50.056;8.678;2022-09-30T18:06:02;3.33;;;2.90;;
5412;SDS011;2729;50.056;8.678;2022-09-30T18:08:28;5.10;;;3.50;;
5412;SDS011;2729;50.056;8.678;2022-09-30T18:10:54;3.93;;;3.00;;
5412;SDS011;2729;50.056;8.678;2022-09-30T18:13:25;7.90;;;3.70;;
5412;SDS011;2729;50.056;8.678;2022-09-30T18:15:52;13.40;;;4.10;;
5412;SDS011;2729;50.056;8.678;2022-09-30T18:18:19;14.07;;;4.80;;
5412;SDS011;2729;50.056;8.678;2022-09-30T18:20:45;6.00;;;4.07;;
5412;SDS011;2729;50.056;8.678;2022-09-30T18:23:13;6.80;;;3.70;;
5412;SDS011;2729;50.056;8.678;2022-09-30T18:25:41;12.00;;;3.53;;
5412;SDS011;2729;50.056;8.678;2022-09-30T18:28:08;6.60;;;3.87;;
5412;SDS011;2729;50.056;8.678;2022-09-30T18:30:35;6.70;;;3.30;;
5412;SDS011;2729;50.056;8.678;2022-09-30T18:33:02;10.23;;;4.47;;
5412;SDS011;2729;50.056;8.678;2022-09-30T18:35:32;7.23;;;4.17;;
5412;SDS011;2729;50.056;8.678;2022-09-30T18:38:00;8.10;;;4.40;;
5412;SDS011;2729;50.056;8.678;2022-09-30T18:40:27;14.10;;;4.60;;
5412;SDS011;2729;50.056;8.678;2022-09-30T18:42:58;6.67;;;3.57;;
5412;SDS011;2729;50.056;8.678;2022-09-30T18:45:30;5.67;;;4.07;;
5412;SDS011;2729;50.056;8.678;2022-09-30T18:48:00;6.20;;;4.40;;